createdAt,value
2018-06-22T00:02:16.638Z,78.50
2018-06-22T00:04:57.195Z,78.30
2018-06-22T00:13:22.510Z,79.00
2018-06-22T00:16:08.597Z,79.20
2018-06-22T00:18:54.106Z,79.30
2018-06-22T00:21:30.343Z,79.50
2018-06-22T00:24:06.347Z,78.70
2018-06-22T00:26:53.571Z,77.50
2018-06-22T00:29:36.554Z,78.00
2018-06-22T00:35:10.912Z,78.10
2018-06-22T00:37:40.714Z,78.50
2018-06-22T00:40:10.532Z,78.00
2018-06-22T00:42:40.281Z,78.00
2018-06-22T00:45:09.923Z,78.00
2018-06-22T00:47:39.735Z,77.60
2018-06-22T00:50:09.422Z,77.30
2018-06-22T00:52:39.258Z,79.00
2018-06-22T00:55:08.949Z,78.80
2018-06-22T00:57:38.563Z,77.90
2018-06-22T01:00:08.321Z,79.00
2018-06-22T01:02:38.424Z,79.80
2018-06-22T01:05:08.259Z,78.20
2018-06-22T01:07:37.939Z,77.20
2018-06-22T01:10:07.720Z,77.50
2018-06-22T01:12:37.529Z,77.40
2018-06-22T01:15:07.656Z,77.00
2018-06-22T01:17:37.416Z,77.80
2018-06-22T01:20:07.111Z,77.80
2018-06-22T01:22:36.814Z,78.50
2018-06-22T01:25:06.506Z,78.80
2018-06-22T01:27:36.238Z,78.70
2018-06-22T01:30:06.176Z,78.20
2018-06-22T01:32:36.034Z,77.50
2018-06-22T01:35:05.761Z,77.40
2018-06-22T01:37:36.345Z,77.80
2018-06-22T01:40:06.040Z,76.70
2018-06-22T01:42:35.793Z,78.20
2018-06-22T01:45:05.500Z,78.00
2018-06-22T01:47:35.192Z,76.80
2018-06-22T01:50:04.797Z,76.50
2018-06-22T01:52:34.583Z,77.90
2018-06-22T01:55:04.407Z,77.40
2018-06-22T01:57:34.158Z,78.10
2018-06-22T02:00:03.854Z,78.70
2018-06-22T02:02:33.623Z,78.40
2018-06-22T02:05:03.361Z,77.60
2018-06-22T02:07:33.011Z,77.40
2018-06-22T02:10:02.669Z,77.70
2018-06-22T02:12:32.402Z,78.80
2018-06-22T02:15:02.890Z,76.90
2018-06-22T02:17:32.967Z,77.50
2018-06-22T02:20:02.711Z,77.30
2018-06-22T02:22:32.399Z,78.70
2018-06-22T02:25:02.040Z,78.80
2018-06-22T02:27:31.851Z,78.40
2018-06-22T02:30:01.624Z,77.40
2018-06-22T02:32:31.354Z,78.00
2018-06-22T02:35:01.090Z,76.50
2018-06-22T02:37:30.951Z,76.50
2018-06-22T02:40:01.035Z,76.80
2018-06-22T02:42:31.065Z,76.60
2018-06-22T02:45:01.163Z,76.80
2018-06-22T02:47:31.372Z,77.70
2018-06-22T02:50:01.744Z,77.20
2018-06-22T02:52:31.442Z,76.50
2018-06-22T02:55:02.028Z,76.00
2018-06-22T02:57:31.786Z,76.30
2018-06-22T03:00:01.548Z,76.80
2018-06-22T03:02:31.168Z,76.60
2018-06-22T03:05:00.840Z,76.60
2018-06-22T03:07:30.790Z,76.80
2018-06-22T03:10:03.487Z,77.00
2018-06-22T03:12:33.086Z,78.20
2018-06-22T03:15:03.425Z,77.80
2018-06-22T03:17:33.759Z,77.40
2018-06-22T03:20:03.595Z,77.60
2018-06-22T03:22:39.871Z,78.20
2018-06-22T03:25:10.796Z,78.60
2018-06-22T03:27:40.627Z,79.90
2018-06-22T03:30:13.713Z,81.80
2018-06-22T03:32:44.098Z,82.40
2018-06-22T03:35:16.962Z,83.80
2018-06-22T03:37:47.597Z,82.80
2018-06-22T03:40:20.027Z,81.90
2018-06-22T03:42:51.738Z,79.80
2018-06-22T03:45:21.879Z,80.20
2018-06-22T03:47:51.831Z,81.60
2018-06-22T03:50:22.049Z,81.10
2018-06-22T03:52:53.222Z,80.20
2018-06-22T03:55:26.798Z,80.20
2018-06-22T03:57:57.478Z,80.20
2018-06-22T04:00:27.663Z,79.90
2018-06-22T04:02:58.608Z,79.70
2018-06-22T04:05:29.891Z,80.30
2018-06-22T04:08:00.102Z,80.60
2018-06-22T04:10:33.281Z,81.00
2018-06-22T04:13:06.787Z,81.50
2018-06-22T04:15:39.985Z,81.80
2018-06-22T04:18:10.673Z,81.50
2018-06-22T04:20:43.361Z,81.80
2018-06-22T04:23:14.509Z,80.80
2018-06-22T04:25:44.134Z,81.00
2018-06-22T04:28:14.112Z,80.80
2018-06-22T04:30:45.737Z,80.60
2018-06-22T04:33:16.822Z,82.70
2018-06-22T04:35:47.477Z,82.50
2018-06-22T04:38:17.971Z,83.10
2018-06-22T04:40:47.684Z,83.30
2018-06-22T04:43:17.333Z,83.60
2018-06-22T04:45:47.628Z,82.40
2018-06-22T04:48:17.221Z,81.60
2018-06-22T04:50:46.812Z,81.30
2018-06-22T04:53:16.512Z,82.50
2018-06-22T04:55:46.144Z,82.10
2018-06-22T04:58:15.780Z,83.00
2018-06-22T05:00:45.399Z,81.10
2018-06-22T05:03:14.998Z,81.30
2018-06-22T05:05:44.647Z,79.80
2018-06-22T05:08:14.316Z,80.10
2018-06-22T05:10:44.105Z,79.10
2018-06-22T05:13:13.794Z,78.70
2018-06-22T05:15:43.480Z,80.20
2018-06-22T05:18:13.037Z,79.40
2018-06-22T05:20:42.870Z,80.00
2018-06-22T05:23:12.770Z,79.70
2018-06-22T05:25:44.284Z,79.10
2018-06-22T05:28:14.284Z,78.80
2018-06-22T05:30:46.114Z,78.30
2018-06-22T05:33:15.981Z,77.80
2018-06-22T05:35:45.704Z,79.70
2018-06-22T05:38:15.372Z,78.00
2018-06-22T05:40:45.073Z,79.10
2018-06-22T05:43:23.689Z,79.50
2018-06-22T05:45:53.426Z,78.50
2018-06-22T05:48:23.068Z,79.40
2018-06-22T05:50:52.861Z,76.80
2018-06-22T05:53:22.436Z,77.90
2018-06-22T05:55:52.232Z,77.10
2018-06-22T05:58:21.970Z,76.90
2018-06-22T06:00:52.687Z,76.00
2018-06-22T06:03:23.585Z,75.30
2018-06-22T06:05:53.301Z,75.10
2018-06-22T06:08:23.053Z,73.80
2018-06-22T06:10:52.888Z,72.90
2018-06-22T06:13:22.705Z,73.30
2018-06-22T06:15:52.284Z,73.10
2018-06-22T06:18:22.146Z,73.70
2018-06-22T06:20:52.035Z,75.60
2018-06-22T06:23:21.760Z,74.70
2018-06-22T06:25:51.628Z,74.50
2018-06-22T06:28:21.281Z,74.60
2018-06-22T06:30:50.959Z,75.60
2018-06-22T06:33:20.588Z,75.80
2018-06-22T06:35:50.320Z,76.20
2018-06-22T06:38:20.045Z,76.70
2018-06-22T06:40:49.950Z,76.00
2018-06-22T06:43:19.627Z,75.00
2018-06-22T06:45:49.355Z,75.60
2018-06-22T06:50:54.642Z,72.10
2018-06-22T06:53:24.253Z,72.60
2018-06-22T06:55:53.912Z,73.10
2018-06-22T06:58:23.653Z,73.50
2018-06-22T07:00:53.293Z,71.80
2018-06-22T07:05:58.520Z,71.60
2018-06-22T07:08:28.265Z,73.10
2018-06-22T07:10:57.904Z,72.70
2018-06-22T07:13:27.588Z,73.80
2018-06-22T07:15:57.357Z,73.60
2018-06-22T07:18:30.852Z,73.50
2018-06-22T07:21:00.527Z,73.90
2018-06-22T07:23:30.876Z,73.30
2018-06-22T07:26:00.547Z,72.20
2018-06-22T07:28:30.411Z,71.90
2018-06-22T07:31:00.147Z,71.70
2018-06-22T07:33:29.936Z,71.60
2018-06-22T07:35:59.578Z,71.50
2018-06-22T07:38:29.154Z,71.00
2018-06-22T07:41:02.429Z,70.70
2018-06-22T07:43:32.420Z,71.40
2018-06-22T07:46:02.273Z,71.20
2018-06-22T07:48:31.961Z,71.90
2018-06-22T07:51:01.962Z,71.40
2018-06-22T07:53:31.672Z,71.90
2018-06-22T07:56:01.420Z,71.40
2018-06-22T07:58:31.629Z,69.10
2018-06-22T08:03:36.389Z,68.70
2018-06-22T08:06:06.161Z,66.20
2018-06-22T08:08:35.879Z,67.20
2018-06-22T08:11:07.527Z,67.40
2018-06-22T08:13:37.162Z,69.40
2018-06-22T08:16:06.764Z,69.20
2018-06-22T08:18:36.458Z,69.40
2018-06-22T08:21:06.664Z,70.10
2018-06-22T08:23:36.464Z,68.50
2018-06-22T08:26:06.167Z,69.40
2018-06-22T08:28:35.860Z,68.90
2018-06-22T08:33:40.184Z,70.00
2018-06-22T08:36:09.794Z,69.90
2018-06-22T08:38:39.450Z,69.30
2018-06-22T08:41:13.195Z,69.70
2018-06-22T08:43:43.016Z,71.80
2018-06-22T08:46:12.876Z,71.70
2018-06-22T08:48:42.631Z,73.60
2018-06-22T08:51:12.429Z,72.80
2018-06-22T08:53:42.161Z,71.50
2018-06-22T08:56:11.849Z,72.20
2018-06-22T08:58:41.704Z,72.80
2018-06-22T09:01:11.358Z,73.00
2018-06-22T09:03:41.068Z,70.40
2018-06-22T09:06:10.723Z,69.60
2018-06-22T09:08:40.421Z,68.60
2018-06-22T09:11:10.240Z,69.70
2018-06-22T09:13:39.980Z,68.90
2018-06-22T09:16:09.637Z,68.10
2018-06-22T09:18:39.379Z,68.40
2018-06-22T09:21:09.002Z,69.60
2018-06-22T09:23:38.636Z,69.70
2018-06-22T09:26:08.428Z,69.00
2018-06-22T09:28:38.224Z,69.40
2018-06-22T09:33:43.717Z,68.70
2018-06-22T09:36:13.446Z,68.60
2018-06-22T09:41:18.980Z,68.80
2018-06-22T09:43:48.708Z,69.00
2018-06-22T09:46:18.430Z,66.00
2018-06-22T09:48:48.157Z,65.40
2018-06-22T09:51:17.882Z,66.20
2018-06-22T09:53:47.651Z,66.70
2018-06-22T09:56:17.392Z,66.50
2018-06-22T09:58:47.215Z,66.50
2018-06-22T10:01:18.692Z,65.00
2018-06-22T10:03:48.348Z,62.90
2018-06-22T10:06:17.966Z,66.00
2018-06-22T10:11:22.633Z,64.30
2018-06-22T10:13:52.459Z,63.90
2018-06-22T10:16:22.082Z,64.60
2018-06-22T10:18:51.824Z,63.70
2018-06-22T10:21:21.708Z,62.60
2018-06-22T10:23:53.203Z,60.80
2018-06-22T10:26:22.863Z,59.20
2018-06-22T10:28:52.624Z,59.80
2018-06-22T10:31:22.272Z,59.90
2018-06-22T10:33:51.961Z,58.20
2018-06-22T10:36:21.507Z,59.20
2018-06-22T10:38:51.149Z,61.60
2018-06-22T10:41:20.931Z,61.00
2018-06-22T10:43:50.700Z,59.30
2018-06-22T10:46:20.384Z,59.80
2018-06-22T10:48:50.121Z,59.80
2018-06-22T10:51:19.872Z,59.20
2018-06-22T10:53:49.580Z,57.00
2018-06-22T10:56:19.211Z,58.60
2018-06-22T10:58:48.883Z,57.00
2018-06-22T11:01:18.536Z,57.80
2018-06-22T11:03:48.226Z,56.90
2018-06-22T11:06:17.906Z,57.10
2018-06-22T11:08:47.555Z,57.80
2018-06-22T11:13:52.938Z,61.70
2018-06-22T11:16:24.366Z,60.80
2018-06-22T11:18:53.987Z,59.90
2018-06-22T11:21:23.860Z,60.50
2018-06-22T11:23:53.552Z,59.00
2018-06-22T11:26:23.446Z,57.20
2018-06-22T11:28:53.076Z,58.20
2018-06-22T11:31:23.001Z,58.50
2018-06-22T11:33:52.725Z,55.90
2018-06-22T11:36:22.498Z,56.20
2018-06-22T11:41:26.892Z,58.70
2018-06-22T11:43:56.620Z,55.50
2018-06-22T11:46:26.470Z,56.90
2018-06-22T11:48:56.449Z,58.70
2018-06-22T11:51:26.143Z,59.20
2018-06-22T11:53:55.964Z,59.10
2018-06-22T11:56:25.646Z,57.30
2018-06-22T11:58:55.269Z,57.40
2018-06-22T12:01:24.996Z,57.20
2018-06-22T12:03:54.742Z,54.60
2018-06-22T12:06:24.397Z,54.80
2018-06-22T12:08:54.361Z,57.30
2018-06-22T12:11:24.167Z,57.00
2018-06-22T12:13:53.781Z,59.70
2018-06-22T12:16:26.685Z,58.00
2018-06-22T12:18:56.462Z,56.50
2018-06-22T12:21:28.265Z,56.10
2018-06-22T12:23:58.169Z,54.80
2018-06-22T12:26:28.888Z,55.90
2018-06-22T12:29:00.339Z,57.20
2018-06-22T12:31:30.830Z,55.10
2018-06-22T12:34:07.247Z,58.30
2018-06-22T12:36:39.436Z,54.60
2018-06-22T12:39:12.608Z,55.90
2018-06-22T12:41:44.357Z,56.20
2018-06-22T12:44:17.448Z,55.60
2018-06-22T12:46:48.807Z,56.20
2018-06-22T12:49:19.338Z,56.30
2018-06-22T12:51:49.742Z,54.20
2018-06-22T12:54:24.422Z,54.70
2018-06-22T12:56:56.657Z,55.20
2018-06-22T12:59:28.257Z,54.80
2018-06-22T13:01:58.548Z,56.40
2018-06-22T13:04:28.652Z,54.50
2018-06-22T13:06:59.107Z,56.50
2018-06-22T13:09:28.919Z,57.10
2018-06-22T13:14:34.552Z,56.60
2018-06-22T13:17:05.732Z,57.80
2018-06-22T13:19:35.654Z,56.40
2018-06-22T13:22:06.309Z,56.30
2018-06-22T13:24:36.123Z,55.70
2018-06-22T13:27:06.036Z,56.20
2018-06-22T13:29:35.829Z,55.00
2018-06-22T13:32:05.533Z,55.70
2018-06-22T13:34:35.140Z,57.60
2018-06-22T13:37:05.231Z,54.80
2018-06-22T13:42:12.645Z,56.70
2018-06-22T13:44:44.159Z,56.60
2018-06-22T13:47:14.227Z,56.60
2018-06-22T13:49:45.856Z,54.30
2018-06-22T13:52:21.708Z,54.90
2018-06-22T13:54:53.994Z,54.00
2018-06-22T13:57:26.648Z,52.80
2018-06-22T13:59:56.445Z,53.30
2018-06-22T14:02:27.569Z,52.10
2018-06-22T14:05:03.151Z,53.30
2018-06-22T14:07:33.745Z,54.40
2018-06-22T14:10:06.929Z,52.60
2018-06-22T14:12:46.475Z,52.50
2018-06-22T14:15:18.965Z,52.60
2018-06-22T14:17:49.328Z,52.50
2018-06-22T14:20:19.851Z,52.90
2018-06-22T14:22:54.273Z,54.90
2018-06-22T14:25:24.450Z,53.20
2018-06-22T14:30:31.459Z,52.90
2018-06-22T14:33:02.403Z,54.10
2018-06-22T14:35:32.567Z,55.00
2018-06-22T14:38:03.373Z,53.60
2018-06-22T14:40:33.616Z,54.20
2018-06-22T14:43:05.262Z,54.80
2018-06-22T14:45:37.452Z,53.60
2018-06-22T14:48:07.940Z,53.70
2018-06-22T14:50:37.672Z,54.40
2018-06-22T14:53:13.099Z,53.60
2018-06-22T14:55:48.080Z,54.50
2018-06-22T14:58:23.187Z,54.80
2018-06-22T15:00:58.254Z,53.80
2018-06-22T15:03:33.640Z,54.70
2018-06-22T15:06:08.809Z,52.50
2018-06-22T15:08:38.444Z,54.50
2018-06-22T15:11:08.296Z,52.80
2018-06-22T15:13:37.999Z,53.90
2018-06-22T15:16:07.860Z,54.50
2018-06-22T15:18:37.547Z,54.60
2018-06-22T15:21:07.576Z,54.70
2018-06-22T15:23:37.573Z,54.90
2018-06-22T15:26:07.204Z,55.00
2018-06-22T15:28:37.332Z,53.20
2018-06-22T15:31:07.656Z,53.30
2018-06-22T15:33:42.708Z,53.40
2018-06-22T15:41:04.700Z,56.10
2018-06-22T15:43:39.608Z,53.00
2018-06-22T15:46:14.615Z,54.00
2018-06-22T15:48:49.889Z,53.10
2018-06-22T15:51:24.863Z,52.00
2018-06-22T15:53:59.738Z,48.70
2018-06-22T15:56:29.480Z,46.50
2018-06-22T15:59:05.916Z,46.90
2018-06-22T16:01:36.876Z,44.40
2018-06-22T16:04:10.605Z,51.00
2018-06-22T16:09:19.407Z,53.50
2018-06-22T16:11:50.044Z,54.60
2018-06-22T16:14:24.871Z,47.80
2018-06-22T16:17:00.254Z,45.40
2018-06-22T16:19:35.075Z,46.30
2018-06-22T16:22:09.977Z,45.70
2018-06-22T16:26:45.765Z,42.50
2018-06-22T16:29:15.638Z,43.40
2018-06-22T16:31:45.578Z,41.50
2018-06-22T16:34:15.314Z,43.40
2018-06-22T16:36:45.020Z,45.10
2018-06-22T16:39:15.046Z,41.10
2018-06-22T16:41:44.778Z,44.20
2018-06-22T16:44:14.743Z,46.30
2018-06-22T16:46:44.860Z,45.40
2018-06-22T16:49:14.647Z,45.30
2018-06-22T16:51:44.375Z,46.10
2018-06-22T16:54:14.089Z,46.30
2018-06-22T16:56:43.752Z,45.90
2018-06-22T16:59:13.483Z,45.80
2018-06-22T17:01:43.165Z,42.40
2018-06-22T17:04:15.326Z,42.80
2018-06-22T17:06:50.432Z,43.60
2018-06-22T17:09:25.303Z,41.80
2018-06-22T17:12:01.722Z,41.50
2018-06-22T17:14:36.680Z,42.30
2018-06-22T17:17:11.620Z,41.10
2018-06-22T17:19:41.364Z,40.00
2018-06-22T17:22:11.194Z,38.20
2018-06-22T17:24:41.094Z,37.30
2018-06-22T17:27:11.316Z,35.60
2018-06-22T17:32:16.604Z,41.10
2018-06-22T17:34:46.314Z,42.00
2018-06-22T17:37:15.999Z,40.90
2018-06-22T17:39:45.735Z,41.90
2018-06-22T17:42:15.452Z,40.30
2018-06-22T17:44:45.137Z,41.70
2018-06-22T17:47:14.868Z,43.80
2018-06-22T17:49:44.729Z,45.80
2018-06-22T17:52:14.541Z,44.20
2018-06-22T17:54:44.213Z,43.40
2018-06-22T17:57:13.965Z,44.20
2018-06-22T17:59:48.849Z,42.10
2018-06-22T18:02:23.525Z,42.90
2018-06-22T18:04:58.836Z,42.10
2018-06-22T18:07:33.787Z,41.70
2018-06-22T18:10:08.614Z,45.10
2018-06-22T18:12:43.412Z,44.80
2018-06-22T18:15:12.957Z,47.00
2018-06-22T18:17:42.548Z,45.50
2018-06-22T18:20:12.281Z,45.80
2018-06-22T18:22:41.986Z,47.00
2018-06-22T18:25:12.245Z,47.20
2018-06-22T18:27:41.961Z,41.90
2018-06-22T18:30:15.710Z,43.80
2018-06-22T18:32:45.477Z,44.70
2018-06-22T18:35:15.886Z,44.60
2018-06-22T18:37:53.301Z,42.60
2018-06-22T18:40:25.604Z,45.60
2018-06-22T18:42:59.151Z,45.70
2018-06-22T18:45:30.610Z,43.00
2018-06-22T18:48:09.913Z,40.20
2018-06-22T18:50:40.755Z,46.10
2018-06-22T18:53:16.252Z,48.10
2018-06-22T18:55:53.000Z,45.90
2018-06-22T18:58:31.583Z,45.10
2018-06-22T19:01:07.587Z,46.70
2018-06-22T19:03:42.649Z,47.80
2018-06-22T19:06:12.301Z,49.00
2018-06-22T19:08:41.965Z,50.00
2018-06-22T19:11:11.728Z,49.70
2018-06-22T19:13:41.719Z,46.60
2018-06-22T19:16:11.416Z,47.80
2018-06-22T19:18:41.075Z,45.40
2018-06-22T19:21:10.831Z,46.60
2018-06-22T19:23:40.456Z,45.50
2018-06-22T19:26:10.178Z,46.70
2018-06-22T19:28:39.840Z,46.60
2018-06-22T19:31:09.440Z,46.60
2018-06-22T19:33:39.086Z,47.20
2018-06-22T19:36:08.701Z,47.20
2018-06-22T19:38:38.394Z,47.80
2018-06-22T19:41:08.029Z,47.50
2018-06-22T19:43:43.074Z,47.40
2018-06-22T19:46:17.950Z,47.60
2018-06-22T19:48:52.879Z,47.60
2018-06-22T19:51:27.651Z,46.00
2018-06-22T19:56:39.688Z,47.50
2018-06-22T19:59:09.295Z,47.50
2018-06-22T20:01:38.918Z,47.10
2018-06-22T20:04:08.563Z,46.70
2018-06-22T20:06:38.345Z,46.90
2018-06-22T20:09:10.954Z,48.40
2018-06-22T20:11:40.893Z,48.60
2018-06-22T20:14:10.610Z,49.10
2018-06-22T20:16:41.080Z,47.50
2018-06-22T20:19:11.717Z,47.60
2018-06-22T20:21:42.099Z,48.60
2018-06-22T20:24:12.038Z,49.30
2018-06-22T20:26:41.784Z,48.30
2018-06-22T20:29:12.344Z,48.90
2018-06-22T20:31:42.076Z,48.90
2018-06-22T20:34:16.859Z,49.70
2018-06-22T20:36:51.674Z,50.60
2018-06-22T20:40:24.688Z,50.00
2018-06-22T20:42:56.448Z,49.00
2018-06-22T20:45:31.807Z,50.20
2018-06-22T20:48:07.491Z,49.90
2018-06-22T20:50:38.012Z,50.10
2018-06-22T20:53:08.513Z,51.00
2018-06-22T20:55:42.034Z,52.30
2018-06-22T20:58:11.781Z,52.50
2018-06-22T21:00:41.389Z,52.10
2018-06-22T21:03:14.619Z,52.80
2018-06-22T21:05:44.406Z,53.20
2018-06-22T21:08:13.978Z,52.00
2018-06-22T21:10:43.829Z,52.20
2018-06-22T21:13:13.632Z,52.20
2018-06-22T21:15:43.119Z,51.70
2018-06-22T21:18:16.876Z,51.90
2018-06-22T21:20:53.482Z,53.60
2018-06-22T21:23:23.229Z,54.20
2018-06-22T21:25:53.561Z,54.60
2018-06-22T21:28:29.051Z,53.70
2018-06-22T21:31:04.625Z,53.10
2018-06-22T21:33:39.561Z,54.30
2018-06-22T21:36:15.334Z,53.60
2018-06-22T21:38:50.148Z,54.50
2018-06-22T21:41:19.861Z,55.60
2018-06-22T21:43:49.489Z,56.10
2018-06-22T21:46:19.195Z,55.10
2018-06-22T21:48:50.508Z,55.90
2018-06-22T21:51:20.117Z,55.30
2018-06-22T21:53:49.824Z,55.40
2018-06-22T21:56:19.506Z,54.50
2018-06-22T21:58:50.112Z,54.90
2018-06-22T22:01:20.470Z,55.00
2018-06-22T22:03:50.312Z,55.20
2018-06-22T22:06:19.971Z,55.90
2018-06-22T22:08:49.841Z,55.10
2018-06-22T22:11:19.484Z,55.40
2018-06-22T22:13:49.087Z,55.80
2018-06-22T22:16:18.787Z,55.30
2018-06-22T22:18:48.453Z,56.10
2018-06-22T22:21:18.228Z,56.60
2018-06-22T22:23:48.581Z,56.50
2018-06-22T22:26:18.707Z,56.80
2018-06-22T22:28:48.417Z,55.40
2018-06-22T22:31:18.126Z,55.30
2018-06-22T22:33:47.767Z,55.90
2018-06-22T22:36:17.352Z,54.20
2018-06-22T22:38:47.039Z,54.60
2018-06-22T22:41:16.845Z,55.30
2018-06-22T22:43:46.524Z,54.60
2018-06-22T22:46:16.185Z,55.00
2018-06-22T22:48:45.931Z,55.30
2018-06-22T22:51:15.768Z,54.10
2018-06-22T22:53:45.502Z,53.90
2018-06-22T22:56:15.395Z,54.70
2018-06-22T22:58:44.998Z,55.60
2018-06-22T23:01:14.939Z,55.70
2018-06-22T23:03:44.704Z,56.20
2018-06-22T23:06:14.494Z,56.20
2018-06-22T23:08:44.197Z,56.50
2018-06-22T23:11:14.879Z,57.20
2018-06-22T23:13:44.680Z,57.10
2018-06-22T23:16:14.536Z,56.40
2018-06-22T23:18:44.247Z,56.30
2018-06-22T23:21:14.098Z,56.80
2018-06-22T23:23:43.708Z,57.20
2018-06-22T23:26:14.411Z,57.40
2018-06-22T23:28:44.024Z,57.30
2018-06-22T23:31:13.647Z,57.00
2018-06-22T23:33:43.402Z,58.10
2018-06-22T23:36:13.273Z,57.80
2018-06-22T23:38:42.984Z,57.80
2018-06-22T23:41:12.629Z,57.30
2018-06-22T23:43:42.967Z,58.20
2018-06-22T23:46:12.723Z,57.40
2018-06-22T23:48:42.376Z,58.30
2018-06-22T23:51:12.653Z,58.10
2018-06-22T23:53:42.465Z,58.50
2018-06-22T23:56:14.032Z,58.50
2018-06-22T23:58:43.851Z,57.70
